createdAt,value
2017-03-16T00:00:00.446Z,2.8
2017-03-16T00:00:19.068Z,2.8
2017-03-16T00:00:37.688Z,2.8
2017-03-16T00:00:56.314Z,2.8
2017-03-16T00:01:14.936Z,2.8
2017-03-16T00:01:33.568Z,2.8
2017-03-16T00:01:52.197Z,2.8
2017-03-16T00:02:10.815Z,2.9
2017-03-16T00:02:29.477Z,2.9
2017-03-16T00:02:48.120Z,2.9
2017-03-16T00:03:06.741Z,2.9
2017-03-16T00:03:25.367Z,2.9
2017-03-16T00:03:43.992Z,2.9
2017-03-16T00:04:02.610Z,2.9
2017-03-16T00:04:21.255Z,2.9
2017-03-16T00:04:39.892Z,2.9
2017-03-16T00:04:58.520Z,2.9
2017-03-16T00:05:17.141Z,2.9
2017-03-16T00:05:35.759Z,2.9
2017-03-16T00:05:54.408Z,2.9
2017-03-16T00:06:13.034Z,2.9
2017-03-16T00:06:31.658Z,2.9
2017-03-16T00:06:50.307Z,2.9
2017-03-16T00:07:08.933Z,2.9
2017-03-16T00:07:27.552Z,2.9
2017-03-16T00:07:46.218Z,3
2017-03-16T00:08:04.841Z,3
2017-03-16T00:08:23.464Z,3
2017-03-16T00:08:42.087Z,2.9
2017-03-16T00:09:00.740Z,2.9
2017-03-16T00:09:19.397Z,3
2017-03-16T00:09:38.020Z,2.9
2017-03-16T00:09:56.642Z,2.9
2017-03-16T00:10:15.270Z,2.9
2017-03-16T00:10:33.899Z,2.9
2017-03-16T00:10:52.526Z,2.9
2017-03-16T00:11:11.179Z,2.9
2017-03-16T00:11:29.809Z,2.9
2017-03-16T00:11:48.435Z,2.9
2017-03-16T00:12:07.065Z,2.9
2017-03-16T00:12:25.691Z,2.9
2017-03-16T00:12:44.322Z,2.8
2017-03-16T00:13:02.950Z,2.8
2017-03-16T00:13:21.572Z,2.8
2017-03-16T00:13:40.197Z,2.8
2017-03-16T00:13:58.830Z,2.8
2017-03-16T00:14:17.464Z,2.7
2017-03-16T00:14:36.115Z,2.7
2017-03-16T00:14:54.739Z,2.7
2017-03-16T00:15:13.367Z,2.7
2017-03-16T00:15:31.990Z,2.7
2017-03-16T00:15:50.614Z,2.6
2017-03-16T00:16:09.241Z,2.6
2017-03-16T00:16:27.863Z,2.6
2017-03-16T00:16:46.494Z,2.6
2017-03-16T00:17:05.119Z,2.6
2017-03-16T00:17:23.763Z,2.6
2017-03-16T00:17:42.389Z,2.5
2017-03-16T00:18:01.035Z,2.5
2017-03-16T00:18:19.663Z,2.5
2017-03-16T00:18:38.286Z,2.5
2017-03-16T00:18:56.911Z,2.5
2017-03-16T00:19:15.536Z,2.5
2017-03-16T00:19:34.169Z,2.5
2017-03-16T00:19:52.791Z,2.5
2017-03-16T00:20:11.422Z,2.5
2017-03-16T00:20:30.046Z,2.4
2017-03-16T00:20:48.671Z,2.4
2017-03-16T00:21:07.296Z,2.4
2017-03-16T00:21:25.946Z,2.4
2017-03-16T00:21:44.573Z,2.4
2017-03-16T00:22:03.198Z,2.4
2017-03-16T00:22:21.822Z,2.4
2017-03-16T00:22:40.473Z,2.4
2017-03-16T00:22:59.110Z,2.4
2017-03-16T00:23:17.734Z,2.3
2017-03-16T00:23:36.364Z,2.3
2017-03-16T00:23:54.992Z,2.3
2017-03-16T00:24:13.618Z,2.3
2017-03-16T00:24:32.246Z,2.3
2017-03-16T00:24:50.896Z,2.3
2017-03-16T00:25:09.522Z,2.3
2017-03-16T00:25:28.147Z,2.3
2017-03-16T00:25:46.769Z,2.3
2017-03-16T00:26:05.395Z,2.4
2017-03-16T00:26:24.018Z,2.4
2017-03-16T00:26:42.640Z,2.4
2017-03-16T00:27:01.258Z,2.4
2017-03-16T00:27:19.885Z,2.4
2017-03-16T00:27:38.512Z,2.4
2017-03-16T00:27:57.164Z,2.4
2017-03-16T00:28:15.804Z,2.4
2017-03-16T00:28:34.434Z,2.5
2017-03-16T00:28:53.058Z,2.5
2017-03-16T00:29:11.684Z,2.5
2017-03-16T00:29:30.308Z,2.5
2017-03-16T00:29:48.932Z,2.5
2017-03-16T00:30:07.561Z,2.5
2017-03-16T00:30:26.187Z,2.5
2017-03-16T00:30:44.814Z,2.5
2017-03-16T00:31:03.452Z,2.6
2017-03-16T00:31:22.076Z,2.6
2017-03-16T00:31:40.697Z,2.6
2017-03-16T00:31:59.353Z,2.6
2017-03-16T00:32:17.976Z,2.6
2017-03-16T00:32:36.620Z,2.6
2017-03-16T00:32:55.245Z,2.6
2017-03-16T00:33:13.878Z,2.6
2017-03-16T00:33:32.500Z,2.6
2017-03-16T00:33:51.130Z,2.6
2017-03-16T00:34:09.759Z,2.6
2017-03-16T00:34:28.381Z,2.6
2017-03-16T00:34:47.005Z,2.6
2017-03-16T00:35:05.627Z,2.6
2017-03-16T00:35:24.262Z,2.6
2017-03-16T00:35:42.889Z,2.6
2017-03-16T00:36:01.516Z,2.6
2017-03-16T00:36:20.146Z,2.6
2017-03-16T00:36:38.770Z,2.6
2017-03-16T00:36:57.397Z,2.7
2017-03-16T00:37:16.050Z,2.7
2017-03-16T00:37:34.681Z,2.7
2017-03-16T00:37:53.329Z,2.7
2017-03-16T00:38:11.972Z,2.7
2017-03-16T00:38:30.616Z,2.7
2017-03-16T00:38:49.266Z,2.7
2017-03-16T00:39:07.897Z,2.7
2017-03-16T00:39:26.528Z,2.7
2017-03-16T00:39:45.154Z,2.7
2017-03-16T00:40:03.778Z,2.7
2017-03-16T00:40:22.408Z,2.7
2017-03-16T00:40:41.065Z,2.7
2017-03-16T00:40:59.693Z,2.7
2017-03-16T00:41:18.320Z,2.8
2017-03-16T00:41:36.949Z,2.8
2017-03-16T00:41:55.574Z,2.8
2017-03-16T00:42:14.192Z,2.8
2017-03-16T00:42:32.815Z,2.8
2017-03-16T00:42:51.448Z,2.8
2017-03-16T00:43:10.077Z,2.9
2017-03-16T00:43:28.702Z,2.9
2017-03-16T00:43:47.349Z,2.9
2017-03-16T00:44:06.009Z,2.9
2017-03-16T00:44:24.635Z,2.9
2017-03-16T00:44:43.260Z,2.9
2017-03-16T00:45:01.888Z,2.9
2017-03-16T00:45:20.513Z,2.9
2017-03-16T00:45:39.147Z,2.9
2017-03-16T00:45:57.773Z,2.9
2017-03-16T00:46:16.401Z,2.9
2017-03-16T00:46:35.028Z,2.9
2017-03-16T00:46:53.654Z,2.9
2017-03-16T00:47:12.284Z,2.9
2017-03-16T00:47:30.942Z,2.9
2017-03-16T00:47:49.565Z,2.9
2017-03-16T00:48:08.189Z,3
2017-03-16T00:48:26.812Z,3
2017-03-16T00:48:45.432Z,3
2017-03-16T00:49:04.079Z,3
2017-03-16T00:49:22.709Z,3
2017-03-16T00:49:41.335Z,3
2017-03-16T00:49:59.962Z,3
2017-03-16T00:50:18.587Z,3
2017-03-16T00:50:37.219Z,3
2017-03-16T00:50:55.874Z,3
2017-03-16T00:51:14.494Z,3
2017-03-16T00:51:33.119Z,3
2017-03-16T00:51:51.744Z,3
2017-03-16T00:52:10.374Z,3
2017-03-16T00:52:29.009Z,3
2017-03-16T00:52:47.633Z,3
2017-03-16T00:53:06.259Z,3.1
2017-03-16T00:53:24.909Z,3.1
2017-03-16T00:53:43.534Z,3.1
2017-03-16T00:54:02.159Z,3.1
2017-03-16T00:54:20.821Z,3.1
2017-03-16T00:54:39.444Z,3.1
2017-03-16T00:54:58.062Z,3.1
2017-03-16T00:55:16.686Z,3.1
2017-03-16T00:55:35.314Z,3.1
2017-03-16T00:55:53.940Z,3.1
2017-03-16T00:56:12.565Z,3.1
2017-03-16T00:56:31.190Z,3.1
2017-03-16T00:56:49.815Z,3.1
2017-03-16T00:57:08.444Z,3.1
2017-03-16T00:57:27.076Z,3.1
2017-03-16T00:57:45.719Z,3.1
2017-03-16T00:58:04.346Z,3.1
2017-03-16T00:58:22.966Z,3.1
2017-03-16T00:58:41.588Z,3.1
2017-03-16T00:59:00.215Z,3.1
2017-03-16T00:59:18.839Z,3.1
2017-03-16T00:59:37.489Z,3.1
2017-03-16T00:59:56.112Z,3.1
2017-03-16T01:00:14.732Z,3.1
2017-03-16T01:00:33.358Z,3.1
2017-03-16T01:00:51.986Z,3.1
2017-03-16T01:01:10.617Z,3.1
2017-03-16T01:01:29.277Z,3.1
2017-03-16T01:01:47.899Z,3.1
2017-03-16T01:02:06.528Z,3.1
2017-03-16T01:02:25.154Z,3.1
2017-03-16T01:02:43.781Z,3.1
2017-03-16T01:03:02.404Z,3
2017-03-16T01:03:21.028Z,3
2017-03-16T01:03:39.649Z,3
2017-03-16T01:03:58.275Z,3
2017-03-16T01:04:16.903Z,3
2017-03-16T01:04:35.531Z,3
2017-03-16T01:04:54.192Z,3
2017-03-16T01:05:12.815Z,3
2017-03-16T01:05:31.443Z,3
2017-03-16T01:05:50.071Z,3
2017-03-16T01:06:08.697Z,2.9
2017-03-16T01:06:27.343Z,2.9
2017-03-16T01:06:45.984Z,2.9
2017-03-16T01:07:04.607Z,2.9
2017-03-16T01:07:23.237Z,2.9
2017-03-16T01:07:41.864Z,2.9
2017-03-16T01:08:00.492Z,2.9
2017-03-16T01:08:19.136Z,2.8
2017-03-16T01:08:37.777Z,2.9
2017-03-16T01:08:56.405Z,2.8
2017-03-16T01:09:15.030Z,2.8
2017-03-16T01:09:33.661Z,2.8
2017-03-16T01:09:52.293Z,2.8
2017-03-16T01:10:10.946Z,2.8
2017-03-16T01:10:29.572Z,2.8
2017-03-16T01:10:48.208Z,2.7
2017-03-16T01:11:06.834Z,2.7
2017-03-16T01:11:25.462Z,2.7
2017-03-16T01:11:44.088Z,2.7
2017-03-16T01:12:02.710Z,2.7
2017-03-16T01:12:21.338Z,2.7
2017-03-16T01:12:39.995Z,2.7
2017-03-16T01:12:58.631Z,2.7
2017-03-16T01:13:17.256Z,2.7
2017-03-16T01:13:35.915Z,2.7
2017-03-16T01:13:54.538Z,2.7
2017-03-16T01:14:13.168Z,2.7
2017-03-16T01:14:31.797Z,2.7
2017-03-16T01:14:50.422Z,2.7
2017-03-16T01:15:09.040Z,2.7
2017-03-16T01:15:27.672Z,2.7
2017-03-16T01:15:46.302Z,2.7
2017-03-16T01:16:04.930Z,2.7
2017-03-16T01:16:23.561Z,2.7
2017-03-16T01:16:42.188Z,2.7
2017-03-16T01:17:00.839Z,2.7
2017-03-16T01:17:19.464Z,2.7
2017-03-16T01:17:38.088Z,2.7
2017-03-16T01:17:56.717Z,2.7
2017-03-16T01:18:15.336Z,2.7
2017-03-16T01:18:33.971Z,2.7
2017-03-16T01:18:52.599Z,2.7
2017-03-16T01:19:11.231Z,2.7
2017-03-16T01:19:29.858Z,2.7
2017-03-16T01:19:48.485Z,2.7
2017-03-16T01:20:07.112Z,2.7
2017-03-16T01:20:25.764Z,2.7
2017-03-16T01:20:44.412Z,2.7
2017-03-16T01:21:03.045Z,2.7
2017-03-16T01:21:21.676Z,2.7
2017-03-16T01:21:40.294Z,2.7
2017-03-16T01:21:58.924Z,2.7
2017-03-16T01:22:17.550Z,2.7
2017-03-16T01:22:36.174Z,2.7
2017-03-16T01:22:54.808Z,2.7
2017-03-16T01:23:13.435Z,2.6
2017-03-16T01:23:32.068Z,2.6
2017-03-16T01:23:50.734Z,2.6
2017-03-16T01:24:09.356Z,2.6
2017-03-16T01:24:27.981Z,2.6
2017-03-16T01:24:46.608Z,2.5
2017-03-16T01:25:05.230Z,2.6
2017-03-16T01:25:23.858Z,2.6
2017-03-16T01:25:42.484Z,2.6
2017-03-16T01:26:01.122Z,2.5
2017-03-16T01:26:19.746Z,2.5
2017-03-16T01:26:38.373Z,2.5
2017-03-16T01:26:57.002Z,2.5
2017-03-16T01:27:15.650Z,2.5
2017-03-16T01:27:34.279Z,2.5
2017-03-16T01:27:52.902Z,2.5
2017-03-16T01:28:11.522Z,2.5
2017-03-16T01:28:30.142Z,2.5
2017-03-16T01:28:48.763Z,2.5
2017-03-16T01:29:07.383Z,2.5
2017-03-16T01:29:26.008Z,2.5
2017-03-16T01:29:44.632Z,2.5
2017-03-16T01:30:03.257Z,2.5
2017-03-16T01:30:21.881Z,2.5
2017-03-16T01:30:40.517Z,2.5
2017-03-16T01:30:59.159Z,2.5
2017-03-16T01:31:17.808Z,2.5
2017-03-16T01:31:36.430Z,2.4
2017-03-16T01:31:55.056Z,2.4
2017-03-16T01:32:13.683Z,2.4
2017-03-16T01:32:32.310Z,2.4
2017-03-16T01:32:50.940Z,2.4
2017-03-16T01:33:09.568Z,2.4
2017-03-16T01:33:28.195Z,2.4
2017-03-16T01:33:46.827Z,2.4
2017-03-16T01:34:05.470Z,2.4
2017-03-16T01:34:24.129Z,2.4
2017-03-16T01:34:42.754Z,2.4
2017-03-16T01:35:01.378Z,2.4
2017-03-16T01:35:20.008Z,2.4
2017-03-16T01:35:38.633Z,2.4
2017-03-16T01:35:57.258Z,2.4
2017-03-16T01:36:15.881Z,2.4
2017-03-16T01:36:34.516Z,2.4
2017-03-16T01:36:53.142Z,2.3
2017-03-16T01:37:11.767Z,2.4
2017-03-16T01:37:30.391Z,2.3
2017-03-16T01:37:49.053Z,2.3
2017-03-16T01:38:07.677Z,2.3
2017-03-16T01:38:26.303Z,2.3
2017-03-16T01:38:44.933Z,2.3
2017-03-16T01:39:03.563Z,2.3
2017-03-16T01:39:22.184Z,2.3
2017-03-16T01:39:40.828Z,2.3
2017-03-16T01:39:59.450Z,2.3
2017-03-16T01:40:18.079Z,2.3
2017-03-16T01:40:36.704Z,2.3
2017-03-16T01:40:55.330Z,2.3
2017-03-16T01:41:13.954Z,2.3
2017-03-16T01:41:32.574Z,2.3
2017-03-16T01:41:51.218Z,2.3
2017-03-16T01:42:09.847Z,2.2
2017-03-16T01:42:28.477Z,2.2
2017-03-16T01:42:47.105Z,2.2
2017-03-16T01:43:05.757Z,2.2
2017-03-16T01:43:24.382Z,2.2
2017-03-16T01:43:43.011Z,2.2
2017-03-16T01:44:01.632Z,2.2
2017-03-16T01:44:20.253Z,2.2
2017-03-16T01:44:38.880Z,2.2
2017-03-16T01:44:57.509Z,2.2
2017-03-16T01:45:16.134Z,2.2
2017-03-16T01:45:34.759Z,2.2
2017-03-16T01:45:53.388Z,2.3
2017-03-16T01:46:12.016Z,2.3
2017-03-16T01:46:30.665Z,2.3
2017-03-16T01:46:49.296Z,2.3
2017-03-16T01:47:07.941Z,2.3
2017-03-16T01:47:26.569Z,2.3
2017-03-16T01:47:45.194Z,2.3
2017-03-16T01:48:03.815Z,2.3
2017-03-16T01:48:22.437Z,2.4
2017-03-16T01:48:41.072Z,2.4
2017-03-16T01:48:59.700Z,2.4
2017-03-16T01:49:18.330Z,2.4
2017-03-16T01:49:36.961Z,2.4
2017-03-16T01:49:55.616Z,2.4
2017-03-16T01:50:14.246Z,2.4
2017-03-16T01:50:32.872Z,2.5
2017-03-16T01:50:51.501Z,2.5
2017-03-16T01:51:10.127Z,2.5
2017-03-16T01:51:28.751Z,2.5
2017-03-16T01:51:47.372Z,2.6
2017-03-16T01:52:05.995Z,2.6
2017-03-16T01:52:24.631Z,2.6
2017-03-16T01:52:43.259Z,2.6
2017-03-16T01:53:01.888Z,2.7
2017-03-16T01:53:20.537Z,2.7
2017-03-16T01:53:39.161Z,2.7
2017-03-16T01:53:57.798Z,2.7
2017-03-16T01:54:16.441Z,2.8
2017-03-16T01:54:35.069Z,2.8
2017-03-16T01:54:53.694Z,2.8
2017-03-16T01:55:12.319Z,2.8
2017-03-16T01:55:30.944Z,2.9
2017-03-16T01:55:49.575Z,2.9
2017-03-16T01:56:08.202Z,2.9
2017-03-16T01:56:26.827Z,3
2017-03-16T01:56:45.468Z,3
2017-03-16T01:57:04.093Z,3
2017-03-16T01:57:22.719Z,3
2017-03-16T01:57:41.363Z,3
2017-03-16T01:57:59.986Z,3
2017-03-16T01:58:18.609Z,3
2017-03-16T01:58:37.231Z,3.1
2017-03-16T01:58:55.862Z,3.1
2017-03-16T01:59:14.491Z,3.1
2017-03-16T01:59:33.116Z,3.1
2017-03-16T01:59:51.743Z,3.1
2017-03-16T02:00:10.384Z,3.1
2017-03-16T02:00:29.033Z,3.1
2017-03-16T02:00:47.671Z,3.1
2017-03-16T02:01:06.301Z,3.1
2017-03-16T02:01:24.923Z,3.2
2017-03-16T02:01:43.542Z,3.2
2017-03-16T02:02:02.169Z,3.2
2017-03-16T02:02:20.796Z,3.2
2017-03-16T02:02:39.426Z,3.2
2017-03-16T02:02:58.054Z,3.2
2017-03-16T02:03:16.679Z,3.2
2017-03-16T02:03:35.312Z,3.2
2017-03-16T02:03:53.970Z,3.2
2017-03-16T02:04:12.589Z,3.2
2017-03-16T02:04:31.219Z,3.2
2017-03-16T02:04:49.847Z,3.2
2017-03-16T02:05:08.472Z,3.2
2017-03-16T02:05:27.095Z,3.2
2017-03-16T02:05:45.729Z,3.2
2017-03-16T02:06:04.353Z,3.2
2017-03-16T02:06:22.978Z,3.2
2017-03-16T02:06:41.601Z,3.2
2017-03-16T02:07:00.224Z,3.2
2017-03-16T02:07:18.855Z,3.2
2017-03-16T02:07:37.485Z,3.2
2017-03-16T02:07:56.110Z,3.2
2017-03-16T02:08:14.752Z,3.2
2017-03-16T02:08:33.372Z,3.2
2017-03-16T02:08:52.003Z,3.1
2017-03-16T02:09:10.655Z,3.1
2017-03-16T02:09:29.298Z,3.1
2017-03-16T02:09:47.921Z,3.1
2017-03-16T02:10:06.541Z,3.1
2017-03-16T02:10:25.164Z,3.1
2017-03-16T02:10:43.790Z,3.1
2017-03-16T02:11:02.422Z,3.1
2017-03-16T02:11:21.043Z,3
2017-03-16T02:11:39.667Z,3
2017-03-16T02:11:58.296Z,3
2017-03-16T02:12:16.926Z,3
2017-03-16T02:12:35.581Z,2.9
2017-03-16T02:12:54.201Z,2.9
2017-03-16T02:13:12.827Z,2.9
2017-03-16T02:13:31.461Z,2.9
2017-03-16T02:13:50.091Z,2.9
2017-03-16T02:14:08.717Z,2.9
2017-03-16T02:14:27.343Z,2.8
2017-03-16T02:14:45.970Z,2.8
2017-03-16T02:15:04.594Z,2.8
2017-03-16T02:15:23.218Z,2.8
2017-03-16T02:15:41.851Z,2.8
2017-03-16T02:16:00.504Z,2.8
2017-03-16T02:16:19.126Z,2.8
2017-03-16T02:16:37.747Z,2.8
2017-03-16T02:16:56.377Z,2.8
2017-03-16T02:17:15.001Z,2.8
2017-03-16T02:17:33.625Z,2.8
2017-03-16T02:17:52.251Z,2.8
2017-03-16T02:18:10.878Z,2.8
2017-03-16T02:18:29.505Z,2.8
2017-03-16T02:18:48.152Z,2.7
2017-03-16T02:19:06.779Z,2.7
2017-03-16T02:19:25.423Z,2.7
2017-03-16T02:19:44.052Z,2.7
2017-03-16T02:20:02.676Z,2.7
2017-03-16T02:20:21.303Z,2.7
2017-03-16T02:20:39.927Z,2.7
2017-03-16T02:20:58.554Z,2.7
2017-03-16T02:21:17.178Z,2.7
2017-03-16T02:21:35.800Z,2.7
2017-03-16T02:21:54.423Z,2.7
2017-03-16T02:22:13.048Z,2.7
2017-03-16T02:22:31.677Z,2.7
2017-03-16T02:22:50.326Z,2.7
2017-03-16T02:23:08.953Z,2.7
2017-03-16T02:23:27.576Z,2.7
2017-03-16T02:23:46.209Z,2.7
2017-03-16T02:24:04.855Z,2.8
2017-03-16T02:24:23.484Z,2.8
2017-03-16T02:24:42.122Z,2.8
2017-03-16T02:25:00.747Z,2.8
2017-03-16T02:25:19.370Z,2.8
2017-03-16T02:25:37.994Z,2.8
2017-03-16T02:25:56.622Z,2.8
2017-03-16T02:26:15.255Z,2.8
2017-03-16T02:26:33.919Z,2.9
2017-03-16T02:26:52.544Z,2.9
2017-03-16T02:27:11.170Z,2.9
2017-03-16T02:27:29.798Z,2.9
2017-03-16T02:27:48.424Z,2.9
2017-03-16T02:28:07.051Z,2.9
2017-03-16T02:28:25.676Z,2.9
2017-03-16T02:28:44.305Z,2.9
2017-03-16T02:29:02.933Z,2.9
2017-03-16T02:29:21.582Z,3
2017-03-16T02:29:40.211Z,3
2017-03-16T02:29:58.866Z,3
2017-03-16T02:30:17.500Z,3
2017-03-16T02:30:36.130Z,3
2017-03-16T02:30:54.762Z,3
2017-03-16T02:31:13.382Z,3
2017-03-16T02:31:32.005Z,3
2017-03-16T02:31:50.640Z,3
2017-03-16T02:32:09.267Z,3
2017-03-16T02:32:27.897Z,3
2017-03-16T02:32:46.525Z,3
2017-03-16T02:33:05.162Z,3.1
2017-03-16T02:33:23.822Z,3.1
2017-03-16T02:33:42.451Z,3.1
2017-03-16T02:34:01.079Z,3.1
2017-03-16T02:34:19.707Z,3.1
2017-03-16T02:34:38.337Z,3.1
2017-03-16T02:34:56.963Z,3.2
2017-03-16T02:35:15.597Z,3.2
2017-03-16T02:35:34.221Z,3.2
2017-03-16T02:35:52.847Z,3.2
2017-03-16T02:36:11.470Z,3.2
2017-03-16T02:36:30.093Z,3.2
2017-03-16T02:36:48.719Z,3.2
2017-03-16T02:37:07.344Z,3.2
2017-03-16T02:37:25.969Z,3.2
2017-03-16T02:37:44.593Z,3.2
2017-03-16T02:38:03.224Z,3.2
2017-03-16T02:38:21.856Z,3.2
2017-03-16T02:38:40.508Z,3.3
2017-03-16T02:38:59.130Z,3.2
2017-03-16T02:39:17.760Z,3.3
2017-03-16T02:39:36.382Z,3.2
2017-03-16T02:39:55.025Z,3.3
2017-03-16T02:40:13.657Z,3.3
2017-03-16T02:40:32.280Z,3.3
2017-03-16T02:40:50.908Z,3.3
2017-03-16T02:41:09.532Z,3.3
2017-03-16T02:41:28.159Z,3.3
2017-03-16T02:41:46.788Z,3.3
2017-03-16T02:42:05.439Z,3.3
2017-03-16T02:42:24.062Z,3.3
2017-03-16T02:42:42.692Z,3.3
2017-03-16T02:43:01.331Z,3.3
2017-03-16T02:43:19.954Z,3.3
2017-03-16T02:43:38.583Z,3.3
2017-03-16T02:43:57.207Z,3.3
2017-03-16T02:44:15.834Z,3.3
2017-03-16T02:44:34.467Z,3.3
2017-03-16T02:44:53.095Z,3.3
2017-03-16T02:45:11.741Z,3.3
2017-03-16T02:45:30.389Z,3.3
2017-03-16T02:45:49.020Z,3.3
2017-03-16T02:46:07.643Z,3.4
2017-03-16T02:46:26.266Z,3.4
2017-03-16T02:46:44.890Z,3.4
2017-03-16T02:47:03.515Z,3.4
2017-03-16T02:47:22.143Z,3.4
2017-03-16T02:47:40.768Z,3.4
2017-03-16T02:47:59.395Z,3.4
2017-03-16T02:48:18.022Z,3.4
2017-03-16T02:48:36.657Z,3.4
2017-03-16T02:48:55.301Z,3.4
2017-03-16T02:49:13.926Z,3.4
2017-03-16T02:49:32.546Z,3.4
2017-03-16T02:49:51.171Z,3.4
2017-03-16T02:50:09.807Z,3.4
2017-03-16T02:50:28.440Z,3.4
2017-03-16T02:50:47.075Z,3.4
2017-03-16T02:51:05.704Z,3.4
2017-03-16T02:51:24.327Z,3.4
2017-03-16T02:51:42.961Z,3.4
2017-03-16T02:52:01.595Z,3.4
2017-03-16T02:52:20.242Z,3.4
2017-03-16T02:52:38.867Z,3.4
2017-03-16T02:52:57.489Z,3.4
2017-03-16T02:53:16.117Z,3.4
2017-03-16T02:53:34.745Z,3.4
2017-03-16T02:53:53.371Z,3.4
2017-03-16T02:54:11.998Z,3.4
2017-03-16T02:54:30.626Z,3.4
2017-03-16T02:54:49.246Z,3.4
2017-03-16T02:55:07.885Z,3.5
2017-03-16T02:55:26.512Z,3.5
2017-03-16T02:55:45.168Z,3.5
2017-03-16T02:56:03.797Z,3.5
2017-03-16T02:56:22.419Z,3.5
2017-03-16T02:56:41.045Z,3.5
2017-03-16T02:56:59.671Z,3.5
2017-03-16T02:57:18.298Z,3.5
2017-03-16T02:57:36.923Z,3.5
2017-03-16T02:57:55.552Z,3.5
2017-03-16T02:58:14.173Z,3.5
2017-03-16T02:58:32.796Z,3.5
2017-03-16T02:58:51.430Z,3.5
2017-03-16T02:59:10.057Z,3.5
2017-03-16T02:59:28.709Z,3.5
2017-03-16T02:59:47.331Z,3.5
2017-03-16T03:00:05.959Z,3.5
2017-03-16T03:00:24.585Z,3.5
2017-03-16T03:00:43.209Z,3.6
2017-03-16T03:01:01.852Z,3.5
2017-03-16T03:01:20.488Z,3.5
2017-03-16T03:01:39.111Z,3.5
2017-03-16T03:01:57.737Z,3.5
2017-03-16T03:02:16.361Z,3.5
2017-03-16T03:02:34.988Z,3.5
2017-03-16T03:02:53.617Z,3.5
2017-03-16T03:03:12.239Z,3.5
2017-03-16T03:03:30.865Z,3.5
2017-03-16T03:03:49.500Z,3.5
2017-03-16T03:04:08.129Z,3.5
2017-03-16T03:04:26.752Z,3.5
2017-03-16T03:04:45.400Z,3.5
2017-03-16T03:05:04.027Z,3.5
2017-03-16T03:05:22.652Z,3.5
2017-03-16T03:05:41.277Z,3.5
2017-03-16T03:05:59.902Z,3.5
2017-03-16T03:06:18.529Z,3.5
2017-03-16T03:06:37.149Z,3.4
2017-03-16T03:06:55.779Z,3.4
2017-03-16T03:07:14.406Z,3.4
2017-03-16T03:07:33.027Z,3.4
2017-03-16T03:07:51.655Z,3.4
2017-03-16T03:08:10.302Z,3.4
2017-03-16T03:08:28.922Z,3.4
2017-03-16T03:08:47.550Z,3.4
2017-03-16T03:09:06.174Z,3.3
2017-03-16T03:09:24.804Z,3.3
2017-03-16T03:09:43.437Z,3.3
2017-03-16T03:10:02.063Z,3.3
2017-03-16T03:10:20.717Z,3.3
2017-03-16T03:10:39.344Z,3.3
2017-03-16T03:10:57.967Z,3.3
2017-03-16T03:11:16.589Z,3.3
2017-03-16T03:11:35.257Z,3.3
2017-03-16T03:11:53.889Z,3.3
2017-03-16T03:12:12.516Z,3.2
2017-03-16T03:12:31.142Z,3.2
2017-03-16T03:12:49.767Z,3.2
2017-03-16T03:13:08.398Z,3.2
2017-03-16T03:13:27.022Z,3.2
2017-03-16T03:13:45.647Z,3.2
2017-03-16T03:14:04.276Z,3.2
2017-03-16T03:14:22.896Z,3.2
2017-03-16T03:14:41.523Z,3.2
2017-03-16T03:15:00.176Z,3.2
2017-03-16T03:15:18.804Z,3.2
2017-03-16T03:15:37.428Z,3.2
2017-03-16T03:15:56.050Z,3.2
2017-03-16T03:16:14.669Z,3.2
2017-03-16T03:16:33.291Z,3.2
2017-03-16T03:16:51.923Z,3.2
2017-03-16T03:17:10.548Z,3.2
2017-03-16T03:17:29.172Z,3.2
2017-03-16T03:17:47.803Z,3.2
2017-03-16T03:18:06.424Z,3.2
2017-03-16T03:18:25.060Z,3.2
2017-03-16T03:18:43.703Z,3.2
2017-03-16T03:19:02.328Z,3.1
2017-03-16T03:19:20.954Z,3.1
2017-03-16T03:19:39.581Z,3.1
2017-03-16T03:19:58.207Z,3.1
2017-03-16T03:20:16.833Z,3.1
2017-03-16T03:20:35.459Z,3.1
2017-03-16T03:20:54.088Z,3.1
2017-03-16T03:21:12.708Z,3.1
2017-03-16T03:21:31.336Z,3.1
2017-03-16T03:21:49.962Z,3.1
2017-03-16T03:22:08.631Z,3.1
2017-03-16T03:22:27.255Z,3.1
2017-03-16T03:22:45.880Z,3.1
2017-03-16T03:23:04.502Z,3.1
2017-03-16T03:23:23.127Z,3.1
2017-03-16T03:23:41.765Z,3.1
2017-03-16T03:24:00.408Z,3.1
2017-03-16T03:24:19.035Z,3.1
2017-03-16T03:24:37.658Z,3.1
2017-03-16T03:24:56.285Z,3.1
2017-03-16T03:25:14.914Z,3.1
2017-03-16T03:25:33.589Z,3.1
2017-03-16T03:25:52.219Z,3.1
2017-03-16T03:26:10.851Z,3.1
2017-03-16T03:26:29.472Z,3.1
2017-03-16T03:26:48.093Z,3.1
2017-03-16T03:27:06.719Z,3.2
2017-03-16T03:27:25.370Z,3.2
2017-03-16T03:27:43.995Z,3.2
2017-03-16T03:28:02.627Z,3.2
2017-03-16T03:28:21.250Z,3.2
2017-03-16T03:28:39.878Z,3.2
2017-03-16T03:28:58.507Z,3.2
2017-03-16T03:29:17.127Z,3.2
2017-03-16T03:29:35.750Z,3.2
2017-03-16T03:29:54.380Z,3.2
2017-03-16T03:30:13.020Z,3.2
2017-03-16T03:30:31.653Z,3.2
2017-03-16T03:30:50.309Z,3.2
2017-03-16T03:31:08.936Z,3.2
2017-03-16T03:31:27.583Z,3.2
2017-03-16T03:31:46.225Z,3.2
2017-03-16T03:32:04.850Z,3.2
2017-03-16T03:32:23.478Z,3.2
2017-03-16T03:32:42.123Z,3.2
2017-03-16T03:33:00.749Z,3.2
2017-03-16T03:33:19.378Z,3.2
2017-03-16T03:33:38.005Z,3.2
2017-03-16T03:33:56.626Z,3.2
2017-03-16T03:34:15.275Z,3.2
2017-03-16T03:34:33.897Z,3.3
2017-03-16T03:34:52.526Z,3.3
2017-03-16T03:35:11.149Z,3.3
2017-03-16T03:35:29.773Z,3.3
2017-03-16T03:35:48.397Z,3.3
2017-03-16T03:36:07.023Z,3.3
2017-03-16T03:36:25.654Z,3.3
2017-03-16T03:36:44.284Z,3.3
2017-03-16T03:37:02.909Z,3.3
2017-03-16T03:37:21.538Z,3.3
2017-03-16T03:37:40.215Z,3.3
2017-03-16T03:37:58.866Z,3.3
2017-03-16T03:38:17.492Z,3.4
2017-03-16T03:38:36.113Z,3.4
2017-03-16T03:38:54.737Z,3.4
2017-03-16T03:39:13.359Z,3.4
2017-03-16T03:39:31.975Z,3.4
2017-03-16T03:39:50.598Z,3.4
2017-03-16T03:40:09.229Z,3.5
2017-03-16T03:40:27.860Z,3.5
2017-03-16T03:40:46.499Z,3.5
2017-03-16T03:41:05.156Z,3.5
2017-03-16T03:41:23.782Z,3.5
2017-03-16T03:41:42.408Z,3.5
2017-03-16T03:42:01.037Z,3.5
2017-03-16T03:42:19.668Z,3.5
2017-03-16T03:42:38.298Z,3.6
2017-03-16T03:42:56.928Z,3.6
2017-03-16T03:43:15.578Z,3.6
2017-03-16T03:43:34.209Z,3.6
2017-03-16T03:43:52.838Z,3.6
2017-03-16T03:44:11.468Z,3.6
2017-03-16T03:44:30.118Z,3.6
2017-03-16T03:44:48.745Z,3.6
2017-03-16T03:45:07.372Z,3.6
2017-03-16T03:45:26.000Z,3.6
2017-03-16T03:45:44.628Z,3.6
2017-03-16T03:46:03.249Z,3.6
2017-03-16T03:46:21.876Z,3.7
2017-03-16T03:46:40.504Z,3.6
2017-03-16T03:46:59.126Z,3.6
2017-03-16T03:47:17.754Z,3.7
2017-03-16T03:47:36.386Z,3.7
2017-03-16T03:47:55.032Z,3.6
2017-03-16T03:48:13.659Z,3.6
2017-03-16T03:48:32.307Z,3.7
2017-03-16T03:48:50.934Z,3.7
2017-03-16T03:49:09.557Z,3.7
2017-03-16T03:49:28.186Z,3.7
2017-03-16T03:49:46.807Z,3.7
2017-03-16T03:50:05.438Z,3.7
2017-03-16T03:50:24.062Z,3.7
2017-03-16T03:50:42.684Z,3.7
2017-03-16T03:51:01.304Z,3.7
2017-03-16T03:51:19.939Z,3.7
2017-03-16T03:51:38.581Z,3.7
2017-03-16T03:51:57.207Z,3.7
2017-03-16T03:52:15.829Z,3.7
2017-03-16T03:52:34.454Z,3.7
2017-03-16T03:52:53.084Z,3.8
2017-03-16T03:53:11.710Z,3.8
2017-03-16T03:53:30.337Z,3.8
2017-03-16T03:53:48.975Z,3.8
2017-03-16T03:54:07.613Z,3.8
2017-03-16T03:54:26.238Z,3.7
2017-03-16T03:54:44.880Z,3.8
2017-03-16T03:55:03.540Z,3.7
2017-03-16T03:55:22.165Z,3.8
2017-03-16T03:55:40.797Z,3.7
2017-03-16T03:55:59.439Z,3.7
2017-03-16T03:56:18.069Z,3.7
2017-03-16T03:56:36.697Z,3.8
2017-03-16T03:56:55.323Z,3.8
2017-03-16T03:57:13.950Z,3.7
2017-03-16T03:57:32.578Z,3.8
2017-03-16T03:57:51.202Z,3.8
2017-03-16T03:58:09.831Z,3.8
2017-03-16T03:58:28.492Z,3.8
2017-03-16T03:58:47.123Z,3.8
2017-03-16T03:59:05.768Z,3.8
2017-03-16T03:59:24.393Z,3.8
2017-03-16T03:59:43.023Z,3.8
2017-03-16T04:00:01.655Z,3.8
2017-03-16T04:00:20.281Z,3.8
2017-03-16T04:00:38.907Z,3.8
2017-03-16T04:00:57.525Z,3.8
2017-03-16T04:01:16.146Z,3.8
2017-03-16T04:01:34.768Z,3.8
2017-03-16T04:01:53.421Z,3.8
2017-03-16T04:02:12.043Z,3.8
2017-03-16T04:02:30.666Z,3.8
2017-03-16T04:02:49.289Z,3.8
2017-03-16T04:03:07.916Z,3.8
2017-03-16T04:03:26.544Z,3.8
2017-03-16T04:03:45.196Z,3.8
2017-03-16T04:04:03.819Z,3.8
2017-03-16T04:04:22.454Z,3.8
2017-03-16T04:04:41.082Z,3.8
2017-03-16T04:04:59.703Z,3.8
2017-03-16T04:05:18.328Z,3.8
2017-03-16T04:05:36.951Z,3.8
2017-03-16T04:05:55.582Z,3.8
2017-03-16T04:06:14.211Z,3.8
2017-03-16T04:06:32.840Z,3.8
2017-03-16T04:06:51.470Z,3.8
2017-03-16T04:07:10.126Z,3.8
2017-03-16T04:07:28.754Z,3.8
2017-03-16T04:07:47.378Z,3.8
2017-03-16T04:08:06.004Z,3.8
2017-03-16T04:08:24.623Z,3.8
2017-03-16T04:08:43.251Z,3.8
2017-03-16T04:09:01.882Z,3.8
2017-03-16T04:09:20.509Z,3.8
2017-03-16T04:09:39.148Z,3.8
2017-03-16T04:09:57.778Z,3.8
2017-03-16T04:10:16.412Z,3.8
2017-03-16T04:10:35.062Z,3.8
2017-03-16T04:10:53.685Z,3.8
2017-03-16T04:11:12.331Z,3.9
2017-03-16T04:11:30.955Z,3.9
2017-03-16T04:11:49.581Z,3.9
2017-03-16T04:12:08.207Z,3.9
2017-03-16T04:12:26.837Z,3.9
2017-03-16T04:12:45.464Z,3.9
2017-03-16T04:13:04.092Z,3.9
2017-03-16T04:13:22.722Z,3.9
2017-03-16T04:13:41.351Z,3.9
2017-03-16T04:14:00.006Z,3.9
2017-03-16T04:14:18.632Z,3.9
2017-03-16T04:14:37.266Z,3.8
2017-03-16T04:14:55.898Z,3.8
2017-03-16T04:15:14.523Z,3.8
2017-03-16T04:15:33.147Z,3.8
2017-03-16T04:15:51.770Z,3.8
2017-03-16T04:16:10.399Z,3.8
2017-03-16T04:16:29.025Z,3.8
2017-03-16T04:16:47.652Z,3.8
2017-03-16T04:17:06.288Z,3.8
2017-03-16T04:17:24.945Z,3.8